sensor_id;sensor_type;location;lat;lon;timestamp;pressure;altitude;pressure_sealevel;temperature;humidity
18509;BME280;9383;50.928;12.116;2022-07-24T00:00:35;99277.19;;;14.41;70.07
18509;BME280;9383;50.928;12.116;2022-07-24T00:03:01;99278.34;;;14.35;70.20
18509;BME280;9383;50.928;12.116;2022-07-24T00:05:28;99271.53;;;14.28;70.49
18509;BME280;9383;50.928;12.116;2022-07-24T00:07:54;99292.81;;;14.30;70.92
18509;BME280;9383;50.928;12.116;2022-07-24T00:10:20;99288.69;;;14.23;70.97
18509;BME280;9383;50.928;12.116;2022-07-24T00:12:46;99233.47;;;13.85;71.12
18509;BME280;9383;50.928;12.116;2022-07-24T00:15:12;99280.47;;;14.06;71.52
18509;BME280;9383;50.928;12.116;2022-07-24T00:17:39;99292.69;;;14.12;71.58
18509;BME280;9383;50.928;12.116;2022-07-24T00:20:08;99286.16;;;13.99;71.76
18509;BME280;9383;50.928;12.116;2022-07-24T00:22:35;99194.66;;;13.36;71.58
18509;BME280;9383;50.928;12.116;2022-07-24T00:25:01;99275.50;;;13.78;71.83
18509;BME280;9383;50.928;12.116;2022-07-24T00:27:27;99272.31;;;13.70;71.87
18509;BME280;9383;50.928;12.116;2022-07-24T00:29:54;99211.03;;;13.27;72.67
18509;BME280;9383;50.928;12.116;2022-07-24T00:32:20;99295.34;;;13.71;72.77
18509;BME280;9383;50.928;12.116;2022-07-24T00:34:47;99292.06;;;13.64;72.99
18509;BME280;9383;50.928;12.116;2022-07-24T00:37:13;99289.59;;;13.59;72.92
18509;BME280;9383;50.928;12.116;2022-07-24T00:39:39;99303.56;;;13.64;73.18
18509;BME280;9383;50.928;12.116;2022-07-24T00:42:05;99245.03;;;13.20;73.36
18509;BME280;9383;50.928;12.116;2022-07-24T00:44:32;99299.66;;;13.53;73.22
18509;BME280;9383;50.928;12.116;2022-07-24T00:46:58;99262.78;;;13.19;73.28
18509;BME280;9383;50.928;12.116;2022-07-24T00:49:24;99299.09;;;13.44;73.37
18509;BME280;9383;50.928;12.116;2022-07-24T00:51:52;99261.22;;;13.14;73.48
18509;BME280;9383;50.928;12.116;2022-07-24T00:54:21;99284.91;;;13.21;73.79
18509;BME280;9383;50.928;12.116;2022-07-24T00:56:50;99291.03;;;13.23;73.96
18509;BME280;9383;50.928;12.116;2022-07-24T00:59:17;99306.69;;;13.31;74.19
18509;BME280;9383;50.928;12.116;2022-07-24T01:01:46;99314.81;;;13.28;74.43
18509;BME280;9383;50.928;12.116;2022-07-24T01:04:12;99316.72;;;13.25;74.68
18509;BME280;9383;50.928;12.116;2022-07-24T01:06:43;99297.81;;;13.08;74.75
18509;BME280;9383;50.928;12.116;2022-07-24T01:09:10;99291.06;;;13.00;74.85
18509;BME280;9383;50.928;12.116;2022-07-24T01:11:38;99317.13;;;13.14;74.94
18509;BME280;9383;50.928;12.116;2022-07-24T01:14:05;99312.84;;;13.09;74.95
18509;BME280;9383;50.928;12.116;2022-07-24T01:16:35;99281.88;;;12.85;75.11
18509;BME280;9383;50.928;12.116;2022-07-24T01:19:02;99238.66;;;12.56;75.29
18509;BME280;9383;50.928;12.116;2022-07-24T01:21:28;99204.25;;;12.29;75.36
18509;BME280;9383;50.928;12.116;2022-07-24T01:23:54;99322.22;;;12.98;75.60
18509;BME280;9383;50.928;12.116;2022-07-24T01:26:21;99320.53;;;12.95;75.66
18509;BME280;9383;50.928;12.116;2022-07-24T01:28:47;99315.50;;;12.87;76.01
18509;BME280;9383;50.928;12.116;2022-07-24T01:31:13;99257.34;;;12.54;76.02
18509;BME280;9383;50.928;12.116;2022-07-24T01:33:39;99287.69;;;12.72;76.26
18509;BME280;9383;50.928;12.116;2022-07-24T01:36:05;99294.81;;;12.72;76.38
18509;BME280;9383;50.928;12.116;2022-07-24T01:38:31;99311.22;;;12.83;76.48
18509;BME280;9383;50.928;12.116;2022-07-24T01:40:57;99310.47;;;12.79;76.86
18509;BME280;9383;50.928;12.116;2022-07-24T01:43:23;99256.13;;;12.39;77.03
18509;BME280;9383;50.928;12.116;2022-07-24T01:45:49;99332.38;;;12.86;76.95
18509;BME280;9383;50.928;12.116;2022-07-24T01:48:16;99261.91;;;12.50;77.08
18509;BME280;9383;50.928;12.116;2022-07-24T01:50:42;99302.72;;;12.73;77.73
18509;BME280;9383;50.928;12.116;2022-07-24T01:53:08;99257.00;;;12.40;77.76
18509;BME280;9383;50.928;12.116;2022-07-24T01:55:34;99272.59;;;12.49;77.72
18509;BME280;9383;50.928;12.116;2022-07-24T01:58:00;99214.53;;;12.14;77.77
18509;BME280;9383;50.928;12.116;2022-07-24T02:00:27;99331.63;;;12.83;78.09
18509;BME280;9383;50.928;12.116;2022-07-24T02:02:53;99328.03;;;12.84;78.24
18509;BME280;9383;50.928;12.116;2022-07-24T02:05:19;99329.91;;;12.82;78.53
18509;BME280;9383;50.928;12.116;2022-07-24T02:07:45;99309.22;;;12.66;78.47
18509;BME280;9383;50.928;12.116;2022-07-24T02:10:13;99299.59;;;12.62;78.59
18509;BME280;9383;50.928;12.116;2022-07-24T02:12:40;99331.75;;;12.79;78.87
18509;BME280;9383;50.928;12.116;2022-07-24T02:15:07;99320.34;;;12.76;79.31
18509;BME280;9383;50.928;12.116;2022-07-24T02:17:33;99200.69;;;12.04;78.85
18509;BME280;9383;50.928;12.116;2022-07-24T02:19:59;99331.94;;;12.75;79.39
18509;BME280;9383;50.928;12.116;2022-07-24T02:22:25;99299.03;;;12.54;79.45
18509;BME280;9383;50.928;12.116;2022-07-24T02:24:52;99331.97;;;12.73;79.67
18509;BME280;9383;50.928;12.116;2022-07-24T02:27:18;99312.88;;;12.62;79.40
18509;BME280;9383;50.928;12.116;2022-07-24T02:29:44;99325.03;;;12.69;79.66
18509;BME280;9383;50.928;12.116;2022-07-24T02:32:10;99264.44;;;12.30;79.61
18509;BME280;9383;50.928;12.116;2022-07-24T02:34:36;99315.66;;;12.59;79.85
18509;BME280;9383;50.928;12.116;2022-07-24T02:37:02;99268.19;;;12.24;79.59
18509;BME280;9383;50.928;12.116;2022-07-24T02:39:28;99327.13;;;12.61;79.69
18509;BME280;9383;50.928;12.116;2022-07-24T02:41:54;99283.19;;;12.27;79.90
18509;BME280;9383;50.928;12.116;2022-07-24T02:44:20;99336.25;;;12.54;79.92
18509;BME280;9383;50.928;12.116;2022-07-24T02:46:46;99318.13;;;12.40;79.98
18509;BME280;9383;50.928;12.116;2022-07-24T02:49:12;99328.56;;;12.46;79.86
18509;BME280;9383;50.928;12.116;2022-07-24T02:51:38;99326.22;;;12.36;79.76
18509;BME280;9383;50.928;12.116;2022-07-24T02:54:04;99310.66;;;12.26;79.96
18509;BME280;9383;50.928;12.116;2022-07-24T02:56:30;99291.97;;;12.03;79.91
18509;BME280;9383;50.928;12.116;2022-07-24T02:58:56;99288.38;;;12.04;79.81
18509;BME280;9383;50.928;12.116;2022-07-24T03:01:22;99343.31;;;12.29;79.89
18509;BME280;9383;50.928;12.116;2022-07-24T03:03:48;99280.25;;;11.82;79.99
18509;BME280;9383;50.928;12.116;2022-07-24T03:06:15;99349.84;;;12.20;79.89
18509;BME280;9383;50.928;12.116;2022-07-24T03:08:41;99324.72;;;12.04;80.15
18509;BME280;9383;50.928;12.116;2022-07-24T03:11:07;99292.66;;;11.81;79.92
18509;BME280;9383;50.928;12.116;2022-07-24T03:13:33;99334.44;;;12.05;79.96
18509;BME280;9383;50.928;12.116;2022-07-24T03:15:59;99315.41;;;11.90;79.95
18509;BME280;9383;50.928;12.116;2022-07-24T03:18:25;99322.56;;;11.88;80.32
18509;BME280;9383;50.928;12.116;2022-07-24T03:20:52;99345.19;;;12.00;80.01
18509;BME280;9383;50.928;12.116;2022-07-24T03:23:18;99325.38;;;11.84;80.22
18509;BME280;9383;50.928;12.116;2022-07-24T03:25:45;99336.56;;;11.93;80.07
18509;BME280;9383;50.928;12.116;2022-07-24T03:28:12;99318.50;;;11.78;80.20
18509;BME280;9383;50.928;12.116;2022-07-24T03:30:39;99329.84;;;11.81;80.15
18509;BME280;9383;50.928;12.116;2022-07-24T03:33:05;99343.09;;;11.83;80.18
18509;BME280;9383;50.928;12.116;2022-07-24T03:35:31;99333.69;;;11.73;80.52
18509;BME280;9383;50.928;12.116;2022-07-24T03:37:58;99346.88;;;11.76;80.65
18509;BME280;9383;50.928;12.116;2022-07-24T03:40:24;99348.72;;;11.74;80.45
18509;BME280;9383;50.928;12.116;2022-07-24T03:42:50;99337.50;;;11.65;80.43
18509;BME280;9383;50.928;12.116;2022-07-24T03:45:16;99263.69;;;11.21;80.69
18509;BME280;9383;50.928;12.116;2022-07-24T03:47:43;99352.38;;;11.70;80.77
18509;BME280;9383;50.928;12.116;2022-07-24T03:50:11;99348.94;;;11.67;80.77
18509;BME280;9383;50.928;12.116;2022-07-24T03:52:37;99231.88;;;10.93;81.08
18509;BME280;9383;50.928;12.116;2022-07-24T03:55:04;99346.31;;;11.66;80.97
18509;BME280;9383;50.928;12.116;2022-07-24T03:57:30;99350.81;;;11.64;81.23
18509;BME280;9383;50.928;12.116;2022-07-24T03:59:56;99351.69;;;11.64;81.32
18509;BME280;9383;50.928;12.116;2022-07-24T04:02:22;99349.97;;;11.63;81.47
18509;BME280;9383;50.928;12.116;2022-07-24T04:04:48;99300.53;;;11.31;81.75
18509;BME280;9383;50.928;12.116;2022-07-24T04:07:14;99335.28;;;11.51;81.91
18509;BME280;9383;50.928;12.116;2022-07-24T04:09:40;99360.56;;;11.63;82.04
18509;BME280;9383;50.928;12.116;2022-07-24T04:12:07;99342.22;;;11.56;82.31
18509;BME280;9383;50.928;12.116;2022-07-24T04:14:33;99336.97;;;11.54;82.26
18509;BME280;9383;50.928;12.116;2022-07-24T04:16:59;99350.81;;;11.64;82.72
18509;BME280;9383;50.928;12.116;2022-07-24T04:19:26;99355.88;;;11.72;82.87
18509;BME280;9383;50.928;12.116;2022-07-24T04:21:52;99331.38;;;11.63;83.35
18509;BME280;9383;50.928;12.116;2022-07-24T04:24:18;99306.09;;;11.50;83.33
18509;BME280;9383;50.928;12.116;2022-07-24T04:26:44;99302.59;;;11.49;83.56
18509;BME280;9383;50.928;12.116;2022-07-24T04:29:10;99346.72;;;11.80;83.89
18509;BME280;9383;50.928;12.116;2022-07-24T04:31:36;99257.22;;;11.30;83.54
18509;BME280;9383;50.928;12.116;2022-07-24T04:34:03;99269.28;;;11.40;83.86
18509;BME280;9383;50.928;12.116;2022-07-24T04:36:29;99350.53;;;11.99;84.02
18509;BME280;9383;50.928;12.116;2022-07-24T04:38:55;99346.78;;;12.06;84.13
18509;BME280;9383;50.928;12.116;2022-07-24T04:41:21;99350.06;;;12.14;84.15
18509;BME280;9383;50.928;12.116;2022-07-24T04:43:47;99352.38;;;12.23;84.46
18509;BME280;9383;50.928;12.116;2022-07-24T04:46:14;99357.38;;;12.33;84.64
18509;BME280;9383;50.928;12.116;2022-07-24T04:48:40;99350.22;;;12.35;84.72
18509;BME280;9383;50.928;12.116;2022-07-24T04:51:06;99321.94;;;12.32;85.06
18509;BME280;9383;50.928;12.116;2022-07-24T04:53:32;99228.84;;;11.85;85.92
18509;BME280;9383;50.928;12.116;2022-07-24T04:55:58;99320.50;;;12.47;85.84
18509;BME280;9383;50.928;12.116;2022-07-24T04:58:26;99332.44;;;12.61;86.05
18509;BME280;9383;50.928;12.116;2022-07-24T05:00:52;99233.13;;;12.14;86.50
18509;BME280;9383;50.928;12.116;2022-07-24T05:03:19;99317.75;;;12.74;87.19
18509;BME280;9383;50.928;12.116;2022-07-24T05:05:45;99294.34;;;12.60;87.33
18509;BME280;9383;50.928;12.116;2022-07-24T05:08:11;99337.06;;;13.03;87.65
18509;BME280;9383;50.928;12.116;2022-07-24T05:10:37;99218.00;;;12.40;87.65
18509;BME280;9383;50.928;12.116;2022-07-24T05:13:03;99284.38;;;12.89;88.16
18509;BME280;9383;50.928;12.116;2022-07-24T05:15:29;99336.78;;;13.33;88.38
18509;BME280;9383;50.928;12.116;2022-07-24T05:17:56;99328.91;;;13.30;89.15
18509;BME280;9383;50.928;12.116;2022-07-24T05:20:22;99343.19;;;13.52;89.68
18509;BME280;9383;50.928;12.116;2022-07-24T05:22:48;99342.75;;;13.62;90.61
18509;BME280;9383;50.928;12.116;2022-07-24T05:25:14;99350.34;;;13.72;91.04
18509;BME280;9383;50.928;12.116;2022-07-24T05:27:40;99328.13;;;13.73;91.39
18509;BME280;9383;50.928;12.116;2022-07-24T05:30:07;99346.81;;;13.93;91.60
18509;BME280;9383;50.928;12.116;2022-07-24T05:32:33;99344.56;;;14.05;92.38
18509;BME280;9383;50.928;12.116;2022-07-24T05:35:01;99338.75;;;14.16;93.15
18509;BME280;9383;50.928;12.116;2022-07-24T05:37:27;99334.66;;;14.28;93.59
18509;BME280;9383;50.928;12.116;2022-07-24T05:39:53;99317.66;;;14.30;93.55
18509;BME280;9383;50.928;12.116;2022-07-24T05:42:19;99319.00;;;14.41;93.65
18509;BME280;9383;50.928;12.116;2022-07-24T05:44:45;99255.94;;;14.19;94.38
18509;BME280;9383;50.928;12.116;2022-07-24T05:47:11;99247.88;;;14.20;94.27
18509;BME280;9383;50.928;12.116;2022-07-24T05:49:37;99274.09;;;14.51;94.02
18509;BME280;9383;50.928;12.116;2022-07-24T05:52:03;99265.50;;;14.63;93.70
18509;BME280;9383;50.928;12.116;2022-07-24T05:54:30;99266.72;;;14.76;93.29
18509;BME280;9383;50.928;12.116;2022-07-24T05:56:56;99319.13;;;15.16;93.12
18509;BME280;9383;50.928;12.116;2022-07-24T05:59:22;99332.34;;;15.38;92.56
18509;BME280;9383;50.928;12.116;2022-07-24T06:01:48;99323.00;;;15.47;92.25
18509;BME280;9383;50.928;12.116;2022-07-24T06:04:14;99273.00;;;15.31;91.38
18509;BME280;9383;50.928;12.116;2022-07-24T06:06:40;99253.28;;;15.34;90.60
18509;BME280;9383;50.928;12.116;2022-07-24T06:09:06;99215.47;;;15.24;89.53
18509;BME280;9383;50.928;12.116;2022-07-24T06:11:32;99269.50;;;15.66;88.85
18509;BME280;9383;50.928;12.116;2022-07-24T06:13:59;99275.88;;;15.81;88.40
18509;BME280;9383;50.928;12.116;2022-07-24T06:16:25;99332.28;;;16.29;87.83
18509;BME280;9383;50.928;12.116;2022-07-24T06:18:51;99302.91;;;16.28;87.50
18509;BME280;9383;50.928;12.116;2022-07-24T06:21:17;99268.72;;;16.17;87.19
18509;BME280;9383;50.928;12.116;2022-07-24T06:23:43;99328.59;;;16.66;85.25
18509;BME280;9383;50.928;12.116;2022-07-24T06:26:09;99317.78;;;16.67;83.05
18509;BME280;9383;50.928;12.116;2022-07-24T06:28:35;99271.16;;;16.55;82.91
18509;BME280;9383;50.928;12.116;2022-07-24T06:31:01;99320.28;;;17.04;83.18
18509;BME280;9383;50.928;12.116;2022-07-24T06:33:28;99322.28;;;17.17;83.66
18509;BME280;9383;50.928;12.116;2022-07-24T06:35:54;99311.47;;;17.18;83.31
18509;BME280;9383;50.928;12.116;2022-07-24T06:38:20;99299.47;;;17.25;82.72
18509;BME280;9383;50.928;12.116;2022-07-24T06:40:46;99297.03;;;17.37;81.13
18509;BME280;9383;50.928;12.116;2022-07-24T06:43:12;99315.16;;;17.64;80.10
18509;BME280;9383;50.928;12.116;2022-07-24T06:45:38;99266.16;;;17.46;78.55
18509;BME280;9383;50.928;12.116;2022-07-24T06:48:05;99325.00;;;17.94;77.01
18509;BME280;9383;50.928;12.116;2022-07-24T06:50:31;99327.25;;;18.02;74.94
18509;BME280;9383;50.928;12.116;2022-07-24T06:52:57;99286.97;;;17.87;73.97
18509;BME280;9383;50.928;12.116;2022-07-24T06:55:23;99296.25;;;18.12;74.21
18509;BME280;9383;50.928;12.116;2022-07-24T06:57:49;99253.94;;;18.01;74.93
18509;BME280;9383;50.928;12.116;2022-07-24T07:00:16;99283.34;;;18.33;74.84
18509;BME280;9383;50.928;12.116;2022-07-24T07:02:42;99312.00;;;18.62;74.13
18509;BME280;9383;50.928;12.116;2022-07-24T07:05:09;99314.69;;;18.76;73.89
18509;BME280;9383;50.928;12.116;2022-07-24T07:07:36;99263.13;;;18.56;73.46
18509;BME280;9383;50.928;12.116;2022-07-24T07:10:05;99316.88;;;18.98;70.58
18509;BME280;9383;50.928;12.116;2022-07-24T07:12:32;99311.72;;;19.10;70.07
18509;BME280;9383;50.928;12.116;2022-07-24T07:14:58;99306.59;;;19.20;69.68
18509;BME280;9383;50.928;12.116;2022-07-24T07:17:25;99287.78;;;19.20;68.59
18509;BME280;9383;50.928;12.116;2022-07-24T07:19:51;99207.94;;;18.80;67.18
18509;BME280;9383;50.928;12.116;2022-07-24T07:22:17;99286.56;;;19.38;66.89
18509;BME280;9383;50.928;12.116;2022-07-24T07:24:43;99214.19;;;19.08;66.54
18509;BME280;9383;50.928;12.116;2022-07-24T07:27:09;99312.19;;;19.72;65.34
18509;BME280;9383;50.928;12.116;2022-07-24T07:29:36;99306.19;;;19.81;64.99
18509;BME280;9383;50.928;12.116;2022-07-24T07:32:02;99312.69;;;19.91;63.60
18509;BME280;9383;50.928;12.116;2022-07-24T07:34:28;99260.97;;;19.73;63.62
18509;BME280;9383;50.928;12.116;2022-07-24T07:36:54;99304.03;;;20.14;63.00
18509;BME280;9383;50.928;12.116;2022-07-24T07:39:21;99273.84;;;20.08;62.55
18509;BME280;9383;50.928;12.116;2022-07-24T07:41:47;99300.78;;;20.34;61.25
18509;BME280;9383;50.928;12.116;2022-07-24T07:44:13;99244.25;;;20.08;59.26
18509;BME280;9383;50.928;12.116;2022-07-24T07:46:39;99253.00;;;20.25;59.13
18509;BME280;9383;50.928;12.116;2022-07-24T07:49:05;99266.75;;;20.46;59.20
18509;BME280;9383;50.928;12.116;2022-07-24T07:51:31;99205.59;;;20.22;58.89
18509;BME280;9383;50.928;12.116;2022-07-24T07:54:16;99300.44;;;20.91;58.14
18509;BME280;9383;50.928;12.116;2022-07-24T07:56:42;99298.94;;;21.00;56.77
18509;BME280;9383;50.928;12.116;2022-07-24T07:59:08;99304.59;;;21.08;56.49
18509;BME280;9383;50.928;12.116;2022-07-24T08:01:35;99297.66;;;21.17;56.91
18509;BME280;9383;50.928;12.116;2022-07-24T08:04:01;99276.22;;;21.15;56.79
18509;BME280;9383;50.928;12.116;2022-07-24T08:06:28;99297.94;;;21.38;56.60
18509;BME280;9383;50.928;12.116;2022-07-24T08:08:54;99199.13;;;20.88;56.39
18509;BME280;9383;50.928;12.116;2022-07-24T08:11:21;99287.41;;;21.46;55.98
18509;BME280;9383;50.928;12.116;2022-07-24T08:13:47;99297.69;;;21.65;54.69
18509;BME280;9383;50.928;12.116;2022-07-24T08:16:13;99296.03;;;21.76;54.99
18509;BME280;9383;50.928;12.116;2022-07-24T08:18:39;99275.03;;;21.68;54.43
18509;BME280;9383;50.928;12.116;2022-07-24T08:21:06;99294.00;;;21.91;53.83
18509;BME280;9383;50.928;12.116;2022-07-24T08:23:32;99292.78;;;21.95;53.74
18509;BME280;9383;50.928;12.116;2022-07-24T08:25:58;99300.69;;;22.10;54.79
18509;BME280;9383;50.928;12.116;2022-07-24T08:28:25;99291.13;;;22.17;53.82
18509;BME280;9383;50.928;12.116;2022-07-24T08:30:51;99289.78;;;22.23;53.38
18509;BME280;9383;50.928;12.116;2022-07-24T08:33:17;99286.59;;;22.29;52.59
18509;BME280;9383;50.928;12.116;2022-07-24T08:35:43;99283.28;;;22.37;53.31
18509;BME280;9383;50.928;12.116;2022-07-24T08:38:09;99235.41;;;22.16;52.67
18509;BME280;9383;50.928;12.116;2022-07-24T08:40:38;99277.22;;;22.57;52.04
18509;BME280;9383;50.928;12.116;2022-07-24T08:43:08;99277.56;;;22.64;50.93
18509;BME280;9383;50.928;12.116;2022-07-24T08:45:39;99265.41;;;22.70;51.34
18509;BME280;9383;50.928;12.116;2022-07-24T08:48:09;99259.16;;;22.69;51.60
18509;BME280;9383;50.928;12.116;2022-07-24T08:50:40;99250.66;;;22.74;51.64
18509;BME280;9383;50.928;12.116;2022-07-24T08:53:07;99261.72;;;22.94;52.40
18509;BME280;9383;50.928;12.116;2022-07-24T08:55:33;99271.78;;;23.03;49.78
18509;BME280;9383;50.928;12.116;2022-07-24T08:58:00;99265.00;;;23.09;49.95
18509;BME280;9383;50.928;12.116;2022-07-24T09:00:30;99251.84;;;23.04;50.15
18509;BME280;9383;50.928;12.116;2022-07-24T09:02:56;99214.41;;;22.88;50.79
18509;BME280;9383;50.928;12.116;2022-07-24T09:05:22;99264.72;;;23.35;50.11
18509;BME280;9383;50.928;12.116;2022-07-24T09:07:49;99261.63;;;23.39;49.79
18509;BME280;9383;50.928;12.116;2022-07-24T09:10:17;99263.09;;;23.43;48.39
18509;BME280;9383;50.928;12.116;2022-07-24T09:12:46;99173.22;;;22.96;48.48
18509;BME280;9383;50.928;12.116;2022-07-24T09:15:18;99248.78;;;23.53;48.49
18509;BME280;9383;50.928;12.116;2022-07-24T09:17:58;99263.00;;;23.66;47.72
18509;BME280;9383;50.928;12.116;2022-07-24T09:20:27;99259.47;;;23.75;48.24
18509;BME280;9383;50.928;12.116;2022-07-24T09:22:59;99264.13;;;23.85;48.05
18509;BME280;9383;50.928;12.116;2022-07-24T09:25:27;99263.47;;;23.93;46.31
18509;BME280;9383;50.928;12.116;2022-07-24T09:28:00;99251.31;;;23.87;44.71
18509;BME280;9383;50.928;12.116;2022-07-24T09:30:43;99266.66;;;23.98;44.05
18509;BME280;9383;50.928;12.116;2022-07-24T09:35:42;99257.34;;;24.12;43.50
18509;BME280;9383;50.928;12.116;2022-07-24T09:38:12;99213.88;;;23.92;44.23
18509;BME280;9383;50.928;12.116;2022-07-24T09:40:43;99248.47;;;24.31;44.18
18509;BME280;9383;50.928;12.116;2022-07-24T09:43:30;99258.81;;;24.47;44.60
18509;BME280;9383;50.928;12.116;2022-07-24T09:46:05;99252.75;;;24.65;44.36
18509;BME280;9383;50.928;12.116;2022-07-24T09:48:38;99255.13;;;24.79;44.44
18509;BME280;9383;50.928;12.116;2022-07-24T09:51:16;99188.38;;;24.57;41.65
18509;BME280;9383;50.928;12.116;2022-07-24T09:53:46;99195.41;;;24.69;41.21
18509;BME280;9383;50.928;12.116;2022-07-24T09:56:16;99240.91;;;25.07;41.63
18509;BME280;9383;50.928;12.116;2022-07-24T10:01:15;99197.22;;;24.90;41.17
18509;BME280;9383;50.928;12.116;2022-07-24T10:03:45;99230.66;;;25.20;42.61
18509;BME280;9383;50.928;12.116;2022-07-24T10:06:18;99238.22;;;25.46;42.90
18509;BME280;9383;50.928;12.116;2022-07-24T10:08:47;99242.72;;;25.57;40.74
18509;BME280;9383;50.928;12.116;2022-07-24T10:11:14;99225.44;;;25.58;40.40
18509;BME280;9383;50.928;12.116;2022-07-24T10:13:41;99230.97;;;25.76;40.58
18509;BME280;9383;50.928;12.116;2022-07-24T10:16:31;99190.84;;;25.60;39.52
18509;BME280;9383;50.928;12.116;2022-07-24T10:19:04;99232.09;;;25.93;40.07
18509;BME280;9383;50.928;12.116;2022-07-24T10:21:35;99217.78;;;25.91;38.49
18509;BME280;9383;50.928;12.116;2022-07-24T10:26:50;99219.19;;;26.05;39.61
18509;BME280;9383;50.928;12.116;2022-07-24T10:29:20;99228.63;;;26.21;39.39
18509;BME280;9383;50.928;12.116;2022-07-24T10:34:45;99227.56;;;26.42;39.67
18509;BME280;9383;50.928;12.116;2022-07-24T10:37:24;99156.28;;;26.10;38.24
18509;BME280;9383;50.928;12.116;2022-07-24T10:43:10;99207.84;;;26.67;39.00
18509;BME280;9383;50.928;12.116;2022-07-24T11:01:42;99197.13;;;26.94;37.17
18509;BME280;9383;50.928;12.116;2022-07-24T11:07:20;99175.59;;;27.01;37.87
18509;BME280;9383;50.928;12.116;2022-07-24T11:10:03;99171.00;;;27.01;36.41
18509;BME280;9383;50.928;12.116;2022-07-24T11:12:41;99179.06;;;27.11;36.65
18509;BME280;9383;50.928;12.116;2022-07-24T11:15:10;99176.06;;;27.14;36.31
18509;BME280;9383;50.928;12.116;2022-07-24T11:18:12;99184.47;;;27.21;36.69
18509;BME280;9383;50.928;12.116;2022-07-24T11:20:39;99122.34;;;26.98;36.30
18509;BME280;9383;50.928;12.116;2022-07-24T11:23:19;99170.44;;;27.34;35.50
18509;BME280;9383;50.928;12.116;2022-07-24T11:25:46;99172.00;;;27.36;35.24
18509;BME280;9383;50.928;12.116;2022-07-24T11:28:13;99118.69;;;27.07;34.92
18509;BME280;9383;50.928;12.116;2022-07-24T11:30:45;99090.03;;;26.85;33.81
18509;BME280;9383;50.928;12.116;2022-07-24T11:33:16;99161.22;;;27.27;33.20
18509;BME280;9383;50.928;12.116;2022-07-24T11:35:42;99131.75;;;27.04;31.90
18509;BME280;9383;50.928;12.116;2022-07-24T11:38:09;99138.97;;;27.13;32.94
18509;BME280;9383;50.928;12.116;2022-07-24T11:40:36;99163.38;;;27.23;31.80
18509;BME280;9383;50.928;12.116;2022-07-24T11:43:07;99149.63;;;27.24;32.24
18509;BME280;9383;50.928;12.116;2022-07-24T11:45:35;99151.88;;;27.29;32.43
18509;BME280;9383;50.928;12.116;2022-07-24T11:48:01;99135.63;;;27.19;32.68
18509;BME280;9383;50.928;12.116;2022-07-24T11:50:28;99071.50;;;26.80;32.42
18509;BME280;9383;50.928;12.116;2022-07-24T11:52:54;99144.41;;;27.31;32.91
18509;BME280;9383;50.928;12.116;2022-07-24T11:55:24;99139.13;;;27.30;32.70
18509;BME280;9383;50.928;12.116;2022-07-24T11:57:55;99140.34;;;27.35;32.46
18509;BME280;9383;50.928;12.116;2022-07-24T12:00:26;99093.19;;;27.08;32.60
18509;BME280;9383;50.928;12.116;2022-07-24T12:02:56;99147.72;;;27.43;32.47
18509;BME280;9383;50.928;12.116;2022-07-24T12:05:30;99129.78;;;27.32;32.01
18509;BME280;9383;50.928;12.116;2022-07-24T12:08:00;99139.41;;;27.45;32.49
18509;BME280;9383;50.928;12.116;2022-07-24T12:10:29;99134.81;;;27.45;32.18
18509;BME280;9383;50.928;12.116;2022-07-24T12:12:56;99139.25;;;27.46;31.47
18509;BME280;9383;50.928;12.116;2022-07-24T12:15:25;99131.25;;;27.45;31.59
18509;BME280;9383;50.928;12.116;2022-07-24T12:18:00;99133.50;;;27.49;31.64
18509;BME280;9383;50.928;12.116;2022-07-24T12:20:38;99132.78;;;27.47;31.28
18509;BME280;9383;50.928;12.116;2022-07-24T12:23:08;99125.16;;;27.51;31.74
18509;BME280;9383;50.928;12.116;2022-07-24T12:25:37;99122.44;;;27.51;31.31
18509;BME280;9383;50.928;12.116;2022-07-24T12:28:09;99124.03;;;27.54;32.14
18509;BME280;9383;50.928;12.116;2022-07-24T12:30:39;99074.63;;;27.30;32.12
18509;BME280;9383;50.928;12.116;2022-07-24T12:33:29;99094.91;;;27.54;31.87
18509;BME280;9383;50.928;12.116;2022-07-24T12:36:10;99109.97;;;27.66;32.13
18509;BME280;9383;50.928;12.116;2022-07-24T12:38:52;99107.63;;;27.72;32.39
18509;BME280;9383;50.928;12.116;2022-07-24T12:41:46;99022.41;;;27.27;31.87
18509;BME280;9383;50.928;12.116;2022-07-24T12:44:44;99092.13;;;27.72;30.96
18509;BME280;9383;50.928;12.116;2022-07-24T12:47:30;99091.28;;;27.72;31.27
18509;BME280;9383;50.928;12.116;2022-07-24T12:50:17;99086.69;;;27.72;31.38
18509;BME280;9383;50.928;12.116;2022-07-24T12:53:08;99078.50;;;27.64;31.71
18509;BME280;9383;50.928;12.116;2022-07-24T12:56:14;99064.38;;;27.69;32.26
18509;BME280;9383;50.928;12.116;2022-07-24T12:59:02;99063.94;;;27.82;32.49
18509;BME280;9383;50.928;12.116;2022-07-24T13:01:50;99069.03;;;27.85;31.06
18509;BME280;9383;50.928;12.116;2022-07-24T13:04:19;99074.34;;;27.86;31.33
18509;BME280;9383;50.928;12.116;2022-07-24T13:07:01;99074.00;;;27.89;30.54
18509;BME280;9383;50.928;12.116;2022-07-24T13:09:37;99067.88;;;27.87;30.57
18509;BME280;9383;50.928;12.116;2022-07-24T13:12:09;99057.66;;;27.81;31.00
18509;BME280;9383;50.928;12.116;2022-07-24T13:15:05;99059.84;;;27.86;31.20
18509;BME280;9383;50.928;12.116;2022-07-24T13:17:34;99055.28;;;27.86;31.94
18509;BME280;9383;50.928;12.116;2022-07-24T13:20:03;99054.09;;;27.89;31.81
18509;BME280;9383;50.928;12.116;2022-07-24T13:22:40;99050.88;;;27.93;31.84
18509;BME280;9383;50.928;12.116;2022-07-24T13:28:08;99038.94;;;27.86;31.29
18509;BME280;9383;50.928;12.116;2022-07-24T13:30:34;99047.97;;;27.95;31.51
18509;BME280;9383;50.928;12.116;2022-07-24T13:33:00;99000.00;;;27.67;32.14
18509;BME280;9383;50.928;12.116;2022-07-24T13:35:27;99025.84;;;27.90;30.67
18509;BME280;9383;50.928;12.116;2022-07-24T13:37:53;99033.88;;;28.00;31.29
18509;BME280;9383;50.928;12.116;2022-07-24T13:40:19;99036.25;;;28.03;31.35
18509;BME280;9383;50.928;12.116;2022-07-24T13:42:46;99033.91;;;28.08;31.31